createdAt,value
2022-11-20T00:02:31.397Z,13.95
2022-11-20T00:05:34.273Z,16.23
2022-11-20T00:08:36.768Z,18.37
2022-11-20T00:11:39.725Z,18.27
2022-11-20T00:14:44.136Z,18.98
2022-11-20T00:17:46.559Z,18.70
2022-11-20T00:20:48.987Z,18.47
2022-11-20T00:23:54.870Z,16.67
2022-11-20T00:26:57.571Z,16.73
2022-11-20T00:29:59.825Z,16.15
2022-11-20T00:33:02.226Z,19.20
2022-11-20T00:36:13.641Z,17.20
2022-11-20T00:39:16.028Z,15.60
2022-11-20T00:42:18.617Z,16.92
2022-11-20T00:45:20.972Z,18.20
2022-11-20T00:48:23.239Z,20.85
2022-11-20T00:51:27.634Z,21.23
2022-11-20T00:54:30.321Z,22.93
2022-11-20T00:57:32.829Z,21.13
2022-11-20T01:00:35.395Z,22.55
2022-11-20T01:03:40.459Z,20.33
2022-11-20T01:06:42.745Z,18.93
2022-11-20T01:09:45.025Z,23.30
2022-11-20T01:13:07.344Z,21.67
2022-11-20T01:16:21.879Z,22.52
2022-11-20T01:19:25.084Z,19.98
2022-11-20T01:22:27.619Z,21.57
2022-11-20T01:25:30.119Z,23.10
2022-11-20T01:28:33.073Z,21.38
2022-11-20T01:31:37.295Z,23.00
2022-11-20T01:34:39.571Z,25.13
2022-11-20T01:37:41.864Z,24.30
2022-11-20T01:40:44.509Z,25.33
2022-11-20T01:43:46.790Z,29.08
2022-11-20T01:46:57.665Z,24.67
2022-11-20T01:50:09.687Z,25.52
2022-11-20T01:53:16.504Z,27.23
2022-11-20T01:56:19.154Z,24.40
2022-11-20T01:59:22.561Z,29.67
2022-11-20T02:02:24.976Z,27.65
2022-11-20T02:05:56.683Z,29.45
2022-11-20T02:08:58.944Z,29.00
2022-11-20T02:12:02.223Z,25.67
2022-11-20T02:15:05.846Z,30.65
2022-11-20T02:18:09.045Z,28.00
2022-11-20T02:21:49.033Z,28.10
2022-11-20T02:24:52.272Z,33.40
2022-11-20T02:27:54.496Z,30.80
2022-11-20T02:30:56.728Z,30.27
2022-11-20T02:33:59.194Z,31.10
2022-11-20T02:37:01.659Z,31.85
2022-11-20T02:40:04.303Z,34.80
2022-11-20T02:43:06.681Z,30.53
2022-11-20T02:46:09.423Z,31.02
2022-11-20T02:49:11.731Z,29.13
2022-11-20T02:52:14.011Z,28.67
2022-11-20T02:55:16.411Z,31.53
2022-11-20T02:58:18.729Z,34.40
2022-11-20T03:01:21.097Z,30.38
2022-11-20T03:04:23.737Z,30.58
2022-11-20T03:07:26.669Z,29.80
2022-11-20T03:10:28.984Z,31.90
2022-11-20T03:13:31.240Z,29.73
2022-11-20T03:16:34.035Z,31.55
2022-11-20T03:19:38.987Z,30.00
2022-11-20T03:22:41.296Z,27.50
2022-11-20T03:25:43.580Z,27.97
2022-11-20T03:29:00.215Z,28.73
2022-11-20T03:32:02.455Z,28.85
2022-11-20T03:35:05.039Z,29.42
2022-11-20T03:38:07.277Z,33.28
2022-11-20T03:41:15.217Z,26.90
2022-11-20T03:44:17.420Z,28.97
2022-11-20T03:47:19.693Z,28.85
2022-11-20T03:50:22.304Z,28.50
2022-11-20T03:53:24.551Z,26.45
2022-11-20T03:56:29.066Z,30.93
2022-11-20T03:59:31.356Z,28.27
2022-11-20T04:02:33.611Z,31.23
2022-11-20T04:05:35.884Z,28.13
2022-11-20T04:08:38.736Z,27.30
2022-11-20T04:11:41.727Z,29.33
2022-11-20T04:14:44.016Z,29.20
2022-11-20T04:17:46.399Z,28.60
2022-11-20T04:20:48.680Z,31.20
2022-11-20T04:23:51.992Z,25.70
2022-11-20T04:26:54.252Z,28.27
2022-11-20T04:29:56.512Z,29.30
2022-11-20T04:32:58.859Z,28.42
2022-11-20T04:36:10.887Z,31.17
2022-11-20T04:39:15.280Z,22.40
2022-11-20T04:42:29.529Z,28.90
2022-11-20T04:45:31.821Z,25.67
2022-11-20T04:48:35.779Z,25.25
2022-11-20T04:51:38.054Z,23.65
2022-11-20T04:54:40.428Z,29.50
2022-11-20T04:57:42.688Z,26.43
2022-11-20T05:00:45.036Z,26.27
2022-11-20T05:03:47.400Z,28.33
2022-11-20T05:06:50.958Z,29.13
2022-11-20T05:09:53.299Z,28.02
2022-11-20T05:12:55.594Z,26.83
2022-11-20T05:16:03.414Z,28.43
2022-11-20T05:19:05.819Z,28.92
2022-11-20T05:22:08.066Z,27.23
2022-11-20T05:25:10.666Z,27.10
2022-11-20T05:28:12.907Z,27.17
2022-11-20T05:31:26.232Z,27.17
2022-11-20T05:34:29.824Z,27.05
2022-11-20T05:37:32.091Z,27.33
2022-11-20T05:40:34.596Z,28.27
2022-11-20T05:43:39.104Z,30.87
2022-11-20T05:46:41.399Z,29.77
2022-11-20T05:49:43.730Z,28.00
2022-11-20T05:52:45.996Z,30.25
2022-11-20T05:55:57.515Z,30.35
2022-11-20T05:58:59.723Z,27.97
2022-11-20T06:02:01.999Z,33.63
2022-11-20T06:05:04.499Z,29.98
2022-11-20T06:08:06.768Z,28.88
2022-11-20T06:11:10.875Z,27.45
2022-11-20T06:14:13.262Z,26.53
2022-11-20T06:17:15.544Z,29.73
2022-11-20T06:20:17.873Z,32.90
2022-11-20T06:23:20.161Z,27.20
2022-11-20T06:26:24.515Z,30.77
2022-11-20T06:29:30.209Z,26.93
2022-11-20T06:32:35.893Z,30.33
2022-11-20T06:35:38.172Z,29.17
2022-11-20T06:38:41.049Z,28.88
2022-11-20T06:41:43.268Z,30.98
2022-11-20T06:44:45.537Z,29.77
2022-11-20T06:47:47.778Z,24.73
2022-11-20T06:50:50.183Z,30.77
2022-11-20T06:53:52.454Z,28.40
2022-11-20T06:56:54.715Z,28.27
2022-11-20T06:59:56.960Z,26.33
2022-11-20T07:02:59.182Z,26.37
2022-11-20T07:06:02.290Z,27.70
2022-11-20T07:09:08.538Z,26.73
2022-11-20T07:12:13.731Z,27.67
2022-11-20T07:15:16.063Z,33.43
2022-11-20T07:18:18.343Z,33.13
2022-11-20T07:21:20.622Z,31.52
2022-11-20T07:24:22.850Z,28.67
2022-11-20T07:27:25.151Z,28.95
2022-11-20T07:30:28.472Z,30.40
2022-11-20T07:33:30.852Z,29.57
2022-11-20T07:36:33.224Z,27.60
2022-11-20T07:39:35.590Z,30.05
2022-11-20T07:42:37.823Z,30.38
2022-11-20T07:45:40.255Z,28.53
2022-11-20T07:48:42.512Z,29.60
2022-11-20T07:51:46.165Z,28.90
2022-11-20T07:54:49.263Z,31.45
2022-11-20T07:57:56.465Z,36.00
2022-11-20T08:00:58.691Z,29.17
2022-11-20T08:04:01.034Z,33.00
2022-11-20T08:07:03.374Z,30.85
2022-11-20T08:10:06.604Z,38.22
2022-11-20T08:13:28.418Z,35.97
2022-11-20T08:16:30.919Z,29.63
2022-11-20T08:19:33.204Z,34.97
2022-11-20T08:22:35.731Z,31.35
2022-11-20T08:25:39.262Z,36.30
2022-11-20T08:28:41.565Z,27.77
2022-11-20T08:31:44.011Z,34.53
2022-11-20T08:34:47.789Z,36.57
2022-11-20T08:37:50.137Z,30.48
2022-11-20T08:41:11.209Z,34.58
2022-11-20T08:44:13.492Z,30.15
2022-11-20T08:47:15.898Z,27.73
2022-11-20T08:50:18.831Z,25.33
2022-11-20T08:53:21.474Z,26.92
2022-11-20T08:56:23.980Z,29.73
2022-11-20T09:02:48.852Z,34.43
2022-11-20T09:05:51.973Z,30.27
2022-11-20T09:08:54.866Z,32.53
2022-11-20T09:11:57.119Z,29.13
2022-11-20T09:14:59.588Z,30.30
2022-11-20T09:18:03.687Z,26.87
2022-11-20T09:21:08.258Z,28.33
2022-11-20T09:24:10.749Z,25.85
2022-11-20T09:27:13.063Z,31.52
2022-11-20T09:30:16.492Z,29.40
2022-11-20T09:33:19.213Z,26.93
2022-11-20T09:36:21.634Z,23.57
2022-11-20T09:39:24.121Z,27.58
2022-11-20T09:42:38.563Z,25.17
2022-11-20T09:46:03.527Z,24.05
2022-11-20T09:49:18.231Z,22.40
2022-11-20T09:52:34.133Z,25.37
2022-11-20T09:55:37.308Z,28.48
2022-11-20T09:58:44.029Z,25.80
2022-11-20T10:01:46.742Z,24.85
2022-11-20T10:04:54.903Z,26.17
2022-11-20T10:08:00.206Z,25.63
2022-11-20T10:11:21.418Z,23.00
2022-11-20T10:14:23.687Z,24.80
2022-11-20T10:18:08.730Z,24.85
2022-11-20T10:21:16.923Z,28.63
2022-11-20T10:24:36.080Z,29.60
2022-11-20T10:27:53.617Z,24.17
2022-11-20T10:31:10.033Z,28.35
2022-11-20T10:34:32.649Z,24.98
2022-11-20T10:37:37.055Z,22.73
2022-11-20T10:40:45.437Z,27.07
2022-11-20T10:43:48.285Z,30.77
2022-11-20T10:46:50.641Z,28.10
2022-11-20T10:49:54.670Z,26.50
2022-11-20T10:53:05.987Z,25.07
2022-11-20T10:56:27.781Z,26.07
2022-11-20T10:59:50.227Z,27.35
2022-11-20T11:02:54.262Z,30.35
2022-11-20T11:06:00.849Z,26.40
2022-11-20T11:09:13.268Z,29.17
2022-11-20T11:12:15.604Z,26.73
2022-11-20T11:15:38.743Z,24.52
2022-11-20T11:18:41.572Z,27.63
2022-11-20T11:22:17.902Z,24.65
2022-11-20T11:25:23.149Z,26.53
2022-11-20T11:28:27.181Z,27.70
2022-11-20T11:31:34.292Z,27.77
2022-11-20T11:34:36.583Z,30.92
2022-11-20T11:37:39.921Z,26.08
2022-11-20T11:40:42.815Z,27.70
2022-11-20T11:44:12.013Z,26.87
2022-11-20T11:47:44.855Z,26.98
2022-11-20T11:50:51.469Z,26.70
2022-11-20T11:53:53.863Z,22.42
2022-11-20T11:56:56.834Z,24.37
2022-11-20T12:00:25.422Z,22.73
2022-11-20T12:03:37.847Z,21.15
2022-11-20T12:06:40.880Z,22.30
2022-11-20T12:09:49.683Z,19.40
2022-11-20T12:13:02.415Z,20.60
2022-11-20T12:16:05.301Z,23.50
2022-11-20T12:19:14.793Z,24.65
2022-11-20T12:22:32.118Z,22.00
2022-11-20T12:25:37.470Z,24.27
2022-11-20T12:28:59.660Z,26.63
2022-11-20T12:32:17.445Z,27.20
2022-11-20T12:35:44.511Z,24.25
2022-11-20T12:38:56.185Z,31.05
2022-11-20T12:42:34.452Z,25.02
2022-11-20T12:45:57.995Z,27.67
2022-11-20T12:49:15.450Z,31.30
2022-11-20T12:52:43.836Z,27.75
2022-11-20T12:55:53.421Z,30.17
2022-11-20T12:59:12.148Z,30.38
2022-11-20T13:02:36.300Z,26.00
2022-11-20T13:05:59.390Z,26.53
2022-11-20T13:09:02.483Z,28.30
2022-11-20T13:12:13.904Z,27.00
2022-11-20T13:15:22.275Z,28.20
2022-11-20T13:18:24.625Z,30.50
2022-11-20T13:21:47.316Z,30.13
2022-11-20T13:24:52.426Z,25.98
2022-11-20T13:27:55.896Z,24.90
2022-11-20T13:30:59.417Z,25.30
2022-11-20T13:34:05.076Z,26.73
2022-11-20T13:37:26.290Z,29.73
2022-11-20T13:40:29.057Z,25.63
2022-11-20T13:43:42.391Z,24.75
2022-11-20T13:46:46.576Z,27.05
2022-11-20T13:49:52.185Z,29.13
2022-11-20T13:53:10.109Z,28.50
2022-11-20T13:56:46.109Z,27.80
2022-11-20T13:59:59.110Z,27.60
2022-11-20T14:03:07.338Z,27.30
2022-11-20T14:06:17.312Z,30.33
2022-11-20T14:09:33.695Z,30.13
2022-11-20T14:12:37.947Z,27.35
2022-11-20T14:15:44.888Z,24.77
2022-11-20T14:18:47.595Z,27.73
2022-11-20T14:21:52.239Z,27.40
2022-11-20T14:25:12.895Z,28.93
2022-11-20T14:28:30.842Z,32.90
2022-11-20T14:31:33.168Z,29.30
2022-11-20T14:34:39.453Z,28.35
2022-11-20T14:37:42.055Z,28.57
2022-11-20T14:40:44.434Z,26.90
2022-11-20T14:43:58.394Z,30.50
2022-11-20T14:47:02.232Z,31.67
2022-11-20T14:50:09.829Z,31.23
2022-11-20T14:53:23.677Z,27.93
2022-11-20T14:56:25.995Z,25.53
2022-11-20T14:59:31.110Z,26.20
2022-11-20T15:02:34.680Z,27.80
2022-11-20T15:05:48.879Z,28.05
2022-11-20T15:08:54.876Z,30.70
2022-11-20T15:11:59.388Z,28.70
2022-11-20T15:15:02.879Z,28.55
2022-11-20T15:18:05.412Z,25.98
2022-11-20T15:21:13.181Z,30.95
2022-11-20T15:24:15.469Z,26.27
2022-11-20T15:27:17.747Z,30.10
2022-11-20T15:30:21.592Z,28.23
2022-11-20T15:33:24.303Z,30.40
2022-11-20T15:36:26.569Z,25.25
2022-11-20T15:39:28.767Z,29.03
2022-11-20T15:42:31.068Z,31.03
2022-11-20T15:46:01.258Z,30.48
2022-11-20T15:49:03.557Z,30.17
2022-11-20T15:52:05.846Z,28.42
2022-11-20T15:55:11.075Z,27.60
2022-11-20T15:58:13.332Z,26.87
2022-11-20T16:01:17.984Z,29.27
2022-11-20T16:04:20.838Z,26.85
2022-11-20T16:07:23.376Z,55.72
2022-11-20T16:10:25.759Z,43.33
2022-11-20T16:13:46.596Z,41.73
2022-11-20T16:16:48.956Z,46.47
2022-11-20T16:19:51.181Z,41.30
2022-11-20T16:22:53.411Z,46.75
2022-11-20T16:25:55.671Z,37.30
2022-11-20T16:29:00.155Z,43.00
2022-11-20T16:32:02.494Z,40.35
2022-11-20T16:35:05.167Z,40.60
2022-11-20T16:38:07.446Z,42.88
2022-11-20T16:41:16.127Z,38.83
2022-11-20T16:44:18.534Z,42.13
2022-11-20T16:47:20.788Z,40.78
2022-11-20T16:50:23.545Z,41.28
2022-11-20T16:53:25.868Z,40.78
2022-11-20T16:56:28.144Z,44.27
2022-11-20T16:59:30.459Z,47.30
2022-11-20T17:02:32.725Z,46.22
2022-11-20T17:05:35.782Z,42.20
2022-11-20T17:08:38.060Z,38.05
2022-11-20T17:11:40.406Z,42.80
2022-11-20T17:14:42.621Z,46.57
2022-11-20T17:17:44.886Z,39.40
2022-11-20T17:20:52.429Z,38.03
2022-11-20T17:23:54.713Z,40.30
2022-11-20T17:26:56.962Z,40.50
2022-11-20T17:29:59.294Z,38.43
2022-11-20T17:33:02.388Z,40.28
2022-11-20T17:36:06.119Z,41.03
2022-11-20T17:39:08.521Z,43.63
2022-11-20T17:42:29.948Z,39.00
2022-11-20T17:45:32.309Z,37.00
2022-11-20T17:48:35.335Z,40.47
2022-11-20T17:51:37.634Z,40.95
2022-11-20T17:54:39.893Z,36.28
2022-11-20T17:57:56.629Z,37.97
2022-11-20T18:01:05.988Z,41.73
2022-11-20T18:04:08.464Z,37.88
2022-11-20T18:07:10.838Z,52.90
2022-11-20T18:10:13.126Z,78.93
2022-11-20T18:13:15.434Z,174.57
2022-11-20T18:16:17.766Z,119.13
2022-11-20T18:19:23.720Z,189.30
2022-11-20T18:22:25.955Z,140.45
2022-11-20T18:25:28.312Z,100.07
2022-11-20T18:28:30.584Z,78.90
2022-11-20T18:31:32.832Z,63.27
2022-11-20T18:34:35.173Z,61.05
2022-11-20T18:37:37.489Z,46.13
2022-11-20T18:40:39.777Z,43.58
2022-11-20T18:44:00.812Z,42.17
2022-11-20T18:47:09.581Z,50.60
2022-11-20T18:50:16.168Z,52.25
2022-11-20T18:53:18.547Z,50.40
2022-11-20T18:56:20.854Z,46.75
2022-11-20T18:59:23.287Z,44.50
2022-11-20T19:02:26.138Z,44.83
2022-11-20T19:05:28.457Z,52.88
2022-11-20T19:08:30.784Z,55.20
2022-11-20T19:11:33.058Z,66.15
2022-11-20T19:14:35.611Z,61.57
2022-11-20T19:17:37.826Z,55.53
2022-11-20T19:20:40.458Z,58.13
2022-11-20T19:23:42.836Z,54.85
2022-11-20T19:26:45.134Z,56.03
2022-11-20T19:29:47.392Z,58.63
2022-11-20T19:32:49.664Z,56.43
2022-11-20T19:35:51.892Z,58.45
2022-11-20T19:38:54.967Z,57.55
2022-11-20T19:41:57.353Z,53.22
2022-11-20T19:44:59.665Z,53.47
2022-11-20T19:48:09.098Z,55.10
2022-11-20T19:51:13.586Z,49.60
2022-11-20T19:54:16.966Z,50.55
2022-11-20T19:57:19.330Z,54.65
2022-11-20T20:00:27.959Z,51.73
2022-11-20T20:03:33.690Z,51.40
2022-11-20T20:06:38.817Z,54.97
2022-11-20T20:09:41.738Z,54.42
2022-11-20T20:12:44.066Z,44.08
2022-11-20T20:15:46.268Z,54.63
2022-11-20T20:18:48.676Z,50.93
2022-11-20T20:21:50.997Z,53.22
2022-11-20T20:24:53.289Z,50.53
2022-11-20T20:27:55.689Z,49.17
2022-11-20T20:30:58.548Z,51.83
2022-11-20T20:34:01.592Z,55.00
2022-11-20T20:37:05.293Z,51.75
2022-11-20T20:40:12.243Z,46.90
2022-11-20T20:43:17.724Z,55.00
2022-11-20T20:46:20.410Z,55.60
2022-11-20T20:49:22.997Z,55.93
2022-11-20T20:52:28.541Z,61.80
2022-11-20T20:55:30.765Z,60.78
2022-11-20T20:58:33.150Z,58.22
2022-11-20T21:01:35.501Z,57.83
2022-11-20T21:04:37.768Z,58.13
2022-11-20T21:08:00.728Z,53.75
2022-11-20T21:11:08.510Z,54.58
2022-11-20T21:14:10.744Z,48.05
2022-11-20T21:17:15.530Z,56.47
2022-11-20T21:20:36.491Z,59.33
2022-11-20T21:23:39.531Z,71.55
2022-11-20T21:26:41.792Z,71.93
2022-11-20T21:29:44.003Z,65.25
2022-11-20T21:32:47.520Z,68.00
2022-11-20T21:35:49.766Z,71.13
2022-11-20T21:38:54.206Z,59.30
2022-11-20T21:41:56.504Z,68.10
2022-11-20T21:44:58.717Z,64.20
2022-11-20T21:48:00.958Z,64.23
2022-11-20T21:51:07.831Z,70.00
2022-11-20T21:54:11.190Z,64.43
2022-11-20T21:57:13.473Z,68.70
2022-11-20T22:00:16.057Z,64.88
2022-11-20T22:03:18.744Z,65.37
2022-11-20T22:06:21.309Z,71.40
2022-11-20T22:09:23.722Z,68.95
2022-11-20T22:12:26.004Z,62.92
2022-11-20T22:15:53.509Z,68.22
2022-11-20T22:18:52.987Z,74.87
2022-11-20T22:21:55.355Z,66.63
2022-11-20T22:24:57.624Z,61.22
2022-11-20T22:28:00.361Z,69.25
2022-11-20T22:31:04.418Z,79.93
2022-11-20T22:34:06.703Z,72.07
2022-11-20T22:37:08.997Z,65.43
2022-11-20T22:40:12.046Z,61.03
2022-11-20T22:43:14.544Z,58.05
2022-11-20T22:46:19.155Z,56.00
2022-11-20T22:49:21.492Z,53.80
2022-11-20T22:52:23.770Z,49.27
2022-11-20T22:55:26.089Z,50.35
2022-11-20T22:58:31.855Z,49.13
2022-11-20T23:01:36.832Z,54.92
2022-11-20T23:04:39.244Z,52.60
2022-11-20T23:07:41.694Z,54.93
2022-11-20T23:10:44.037Z,54.30
2022-11-20T23:13:46.823Z,53.72
2022-11-20T23:16:50.278Z,51.47
2022-11-20T23:19:52.652Z,54.37
2022-11-20T23:22:54.990Z,56.37
2022-11-20T23:26:00.833Z,55.50
2022-11-20T23:29:04.540Z,56.40
2022-11-20T23:32:06.855Z,48.40
2022-11-20T23:35:09.467Z,53.60
2022-11-20T23:38:11.706Z,60.23
2022-11-20T23:41:14.279Z,53.97
2022-11-20T23:44:16.687Z,54.50
2022-11-20T23:47:19.032Z,54.25
2022-11-20T23:50:21.416Z,53.43
2022-11-20T23:53:24.427Z,52.00
2022-11-20T23:56:27.032Z,53.13
2022-11-20T23:59:29.332Z,52.33
